createdAt,value
2023-04-12T00:00:29.600Z,1.97
2023-04-12T00:01:29.633Z,1.95
2023-04-12T00:02:29.785Z,1.96
2023-04-12T00:03:29.860Z,1.95
2023-04-12T00:04:29.921Z,1.99
2023-04-12T00:05:29.807Z,1.90
2023-04-12T00:06:29.851Z,1.92
2023-04-12T00:07:29.900Z,1.99
2023-04-12T00:08:29.947Z,1.91
2023-04-12T00:09:29.992Z,1.94
2023-04-12T00:10:30.031Z,1.94
2023-04-12T00:11:30.079Z,1.90
2023-04-12T00:12:30.131Z,1.91
2023-04-12T00:13:30.175Z,1.91
2023-04-12T00:14:30.226Z,1.87
2023-04-12T00:15:30.263Z,1.87
2023-04-12T00:16:30.330Z,1.90
2023-04-12T00:17:30.397Z,1.87
2023-04-12T00:18:30.419Z,1.85
2023-04-12T00:19:30.491Z,1.84
2023-04-12T00:20:30.545Z,1.85
2023-04-12T00:21:30.573Z,1.85
2023-04-12T00:22:30.630Z,1.85
2023-04-12T00:23:30.672Z,1.82
2023-04-12T00:24:30.730Z,1.85
2023-04-12T00:25:30.780Z,1.83
2023-04-12T00:26:30.816Z,1.83
2023-04-12T00:27:30.862Z,1.81
2023-04-12T00:28:30.914Z,1.82
2023-04-12T00:29:30.971Z,1.78
2023-04-12T00:30:31.004Z,1.79
2023-04-12T00:31:31.086Z,1.82
2023-04-12T00:32:31.148Z,1.81
2023-04-12T00:33:31.152Z,1.78
2023-04-12T00:34:31.187Z,1.80
2023-04-12T00:35:31.295Z,1.80
2023-04-12T00:36:31.287Z,1.77
2023-04-12T00:37:31.334Z,1.77
2023-04-12T00:38:31.381Z,1.79
2023-04-12T00:39:31.432Z,1.74
2023-04-12T00:40:31.477Z,1.76
2023-04-12T00:41:31.535Z,1.72
2023-04-12T00:42:31.573Z,1.76
2023-04-12T00:43:31.628Z,1.73
2023-04-12T00:44:31.671Z,1.74
2023-04-12T00:45:31.716Z,1.71
2023-04-12T00:46:31.821Z,1.74
2023-04-12T00:47:31.830Z,1.72
2023-04-12T00:48:31.882Z,1.67
2023-04-12T00:49:31.907Z,1.71
2023-04-12T00:50:31.961Z,1.72
2023-04-12T00:51:32.019Z,1.71
2023-04-12T00:52:32.056Z,1.68
2023-04-12T00:53:32.118Z,1.69
2023-04-12T00:54:32.138Z,1.72
2023-04-12T00:55:32.196Z,1.68
2023-04-12T00:56:32.253Z,1.66
2023-04-12T00:57:32.348Z,1.69
2023-04-12T00:58:32.343Z,1.67
2023-04-12T00:59:32.405Z,1.67
2023-04-12T01:00:32.465Z,1.65
2023-04-12T01:01:32.510Z,1.66
2023-04-12T01:02:32.721Z,1.65
2023-04-12T01:03:32.817Z,1.63
2023-04-12T01:04:32.644Z,1.67
2023-04-12T01:05:32.706Z,1.66
2023-04-12T01:06:32.748Z,1.59
2023-04-12T01:07:32.809Z,1.67
2023-04-12T01:08:32.874Z,1.63
2023-04-12T01:09:32.895Z,1.61
2023-04-12T01:10:32.942Z,1.62
2023-04-12T01:11:33.012Z,1.62
2023-04-12T01:12:33.059Z,1.59
2023-04-12T01:13:33.126Z,1.63
2023-04-12T01:14:33.159Z,1.62
2023-04-12T01:15:33.202Z,1.60
2023-04-12T01:16:33.306Z,1.58
2023-04-12T01:17:33.308Z,1.58
2023-04-12T01:18:33.363Z,1.57
2023-04-12T01:19:33.419Z,1.58
2023-04-12T01:20:33.458Z,1.60
2023-04-12T01:21:33.506Z,1.57
2023-04-12T01:22:33.554Z,1.56
2023-04-12T01:23:33.622Z,1.56
2023-04-12T01:24:33.674Z,1.60
2023-04-12T01:25:33.700Z,1.56
2023-04-12T01:26:33.762Z,1.57
2023-04-12T01:27:33.800Z,1.54
2023-04-12T01:28:33.849Z,1.51
2023-04-12T01:29:33.904Z,1.55
2023-04-12T01:30:33.952Z,1.55
2023-04-12T01:31:34.081Z,1.51
2023-04-12T01:32:34.080Z,1.52
2023-04-12T01:33:34.094Z,1.53
2023-04-12T01:34:34.144Z,1.51
2023-04-12T01:35:35.440Z,1.53
2023-04-12T01:36:34.252Z,1.52
2023-04-12T01:37:34.278Z,1.52
2023-04-12T01:38:34.320Z,1.53
2023-04-12T01:39:34.374Z,1.52
2023-04-12T01:40:34.414Z,1.50
2023-04-12T01:41:34.467Z,1.50
2023-04-12T01:42:34.518Z,1.48
2023-04-12T01:43:34.560Z,1.52
2023-04-12T01:44:34.609Z,1.47
2023-04-12T01:45:34.737Z,1.49
2023-04-12T01:46:34.696Z,1.47
2023-04-12T01:47:34.775Z,1.46
2023-04-12T01:48:34.788Z,1.47
2023-04-12T01:49:34.822Z,1.46
2023-04-12T01:50:34.868Z,1.47
2023-04-12T01:51:34.994Z,1.45
2023-04-12T01:52:34.956Z,1.44
2023-04-12T01:53:35.004Z,1.41
2023-04-12T01:54:35.050Z,1.42
2023-04-12T01:55:35.077Z,1.40
2023-04-12T01:56:35.114Z,1.40
2023-04-12T01:57:35.157Z,1.39
2023-04-12T01:58:35.195Z,1.41
2023-04-12T01:59:35.234Z,1.42
2023-04-12T02:00:35.290Z,1.42
2023-04-12T02:01:35.469Z,1.43
2023-04-12T02:02:35.523Z,1.39
2023-04-12T02:03:35.493Z,1.41
2023-04-12T02:04:35.440Z,1.39
2023-04-12T02:05:35.484Z,1.39
2023-04-12T02:06:35.536Z,1.39
2023-04-12T02:07:35.565Z,1.37
2023-04-12T02:08:35.609Z,1.38
2023-04-12T02:09:35.636Z,1.38
2023-04-12T02:10:35.680Z,1.38
2023-04-12T02:11:35.733Z,1.37
2023-04-12T02:12:35.764Z,1.37
2023-04-12T02:13:35.816Z,1.36
2023-04-12T02:14:35.873Z,1.36
2023-04-12T02:15:35.884Z,1.33
2023-04-12T02:16:35.973Z,1.34
2023-04-12T02:17:35.975Z,1.35
2023-04-12T02:18:35.987Z,1.33
2023-04-12T02:19:36.030Z,1.32
2023-04-12T02:20:36.086Z,1.35
2023-04-12T02:21:36.107Z,1.34
2023-04-12T02:22:36.138Z,1.34
2023-04-12T02:23:36.174Z,1.33
2023-04-12T02:24:36.217Z,1.30
2023-04-12T02:25:36.252Z,1.31
2023-04-12T02:26:36.304Z,1.31
2023-04-12T02:27:36.337Z,1.31
2023-04-12T02:28:36.563Z,1.31
2023-04-12T02:29:36.386Z,1.31
2023-04-12T02:30:36.441Z,1.32
2023-04-12T02:31:36.461Z,1.30
2023-04-12T02:32:36.529Z,1.27
2023-04-12T02:33:36.536Z,1.29
2023-04-12T02:34:36.768Z,1.29
2023-04-12T02:35:36.636Z,1.30
2023-04-12T02:36:36.633Z,1.28
2023-04-12T02:37:36.664Z,1.28
2023-04-12T02:38:36.702Z,1.26
2023-04-12T02:39:36.727Z,1.28
2023-04-12T02:40:36.769Z,1.26
2023-04-12T02:41:36.802Z,1.28
2023-04-12T02:42:36.845Z,1.27
2023-04-12T02:43:36.874Z,1.25
2023-04-12T02:44:36.915Z,1.26
2023-04-12T02:45:36.951Z,1.25
2023-04-12T02:46:37.012Z,1.26
2023-04-12T02:47:37.016Z,1.25
2023-04-12T02:48:37.047Z,1.25
2023-04-12T02:49:37.091Z,1.26
2023-04-12T02:50:37.122Z,1.27
2023-04-12T02:51:37.170Z,1.25
2023-04-12T02:52:37.202Z,1.22
2023-04-12T02:53:37.224Z,1.23
2023-04-12T02:54:37.267Z,1.26
2023-04-12T02:55:37.306Z,1.23
2023-04-12T02:56:37.350Z,1.23
2023-04-12T02:57:37.382Z,1.23
2023-04-12T02:58:37.408Z,1.22
2023-04-12T02:59:37.447Z,1.23
2023-04-12T03:00:37.474Z,1.19
2023-04-12T03:01:37.577Z,1.22
2023-04-12T03:02:37.722Z,1.21
2023-04-12T03:03:37.706Z,1.20
2023-04-12T03:04:37.616Z,1.20
2023-04-12T03:05:37.647Z,1.17
2023-04-12T03:06:37.686Z,1.19
2023-04-12T03:07:37.726Z,1.21
2023-04-12T03:08:37.737Z,1.17
2023-04-12T03:09:37.773Z,1.19
2023-04-12T03:10:37.806Z,1.19
2023-04-12T03:11:37.822Z,1.20
2023-04-12T03:12:37.865Z,1.18
2023-04-12T03:13:37.901Z,1.17
2023-04-12T03:14:37.937Z,1.18
2023-04-12T03:15:37.972Z,1.16
2023-04-12T03:16:37.998Z,1.16
2023-04-12T03:17:38.077Z,1.17
2023-04-12T03:18:38.051Z,1.16
2023-04-12T03:19:38.080Z,1.15
2023-04-12T03:20:38.116Z,1.16
2023-04-12T03:21:38.159Z,1.17
2023-04-12T03:22:38.188Z,1.16
2023-04-12T03:23:38.207Z,1.15
2023-04-12T03:24:38.238Z,1.15
2023-04-12T03:25:38.280Z,1.13
2023-04-12T03:26:38.303Z,1.14
2023-04-12T03:27:38.330Z,1.15
2023-04-12T03:28:38.364Z,1.14
2023-04-12T03:29:38.395Z,1.13
2023-04-12T03:30:38.429Z,1.15
2023-04-12T03:31:38.593Z,1.12
2023-04-12T03:32:38.510Z,1.15
2023-04-12T03:33:38.531Z,1.13
2023-04-12T03:34:38.560Z,1.12
2023-04-12T03:35:38.637Z,1.13
2023-04-12T03:36:38.633Z,1.12
2023-04-12T03:37:38.646Z,1.12
2023-04-12T03:38:38.674Z,1.11
2023-04-12T03:39:38.694Z,1.10
2023-04-12T03:40:38.710Z,1.10
2023-04-12T03:41:38.760Z,1.12
2023-04-12T03:42:38.778Z,1.11
2023-04-12T03:43:38.809Z,1.10
2023-04-12T03:44:38.829Z,1.11
2023-04-12T03:45:38.860Z,1.10
2023-04-12T03:46:38.912Z,1.10
2023-04-12T03:47:38.993Z,1.10
2023-04-12T03:48:38.938Z,1.10
2023-04-12T03:49:38.971Z,1.09
2023-04-12T03:50:38.996Z,1.09
2023-04-12T03:51:39.020Z,1.10
2023-04-12T03:52:39.099Z,1.06
2023-04-12T03:53:39.078Z,1.09
2023-04-12T03:54:39.109Z,1.06
2023-04-12T03:55:39.137Z,1.09
2023-04-12T03:56:39.170Z,1.07
2023-04-12T03:57:39.199Z,1.07
2023-04-12T03:58:39.238Z,1.07
2023-04-12T03:59:39.261Z,1.06
2023-04-12T04:00:39.281Z,1.08
2023-04-12T04:01:39.326Z,1.08
2023-04-12T04:02:39.418Z,1.07
2023-04-12T04:03:39.542Z,1.07
2023-04-12T04:04:39.408Z,1.05
2023-04-12T04:05:39.442Z,1.07
2023-04-12T04:06:39.480Z,1.06
2023-04-12T04:07:39.496Z,1.06
2023-04-12T04:08:39.529Z,1.03
2023-04-12T04:09:39.563Z,1.05
2023-04-12T04:10:39.596Z,1.03
2023-04-12T04:11:39.629Z,1.05
2023-04-12T04:12:39.659Z,1.06
2023-04-12T04:13:39.697Z,1.03
2023-04-12T04:14:39.723Z,1.05
2023-04-12T04:15:39.745Z,1.02
2023-04-12T04:16:39.797Z,1.03
2023-04-12T04:17:39.842Z,1.01
2023-04-12T04:18:39.861Z,1.03
2023-04-12T04:19:39.873Z,1.03
2023-04-12T04:20:39.915Z,1.02
2023-04-12T04:21:39.958Z,1.03
2023-04-12T04:22:39.966Z,1.03
2023-04-12T04:23:40.010Z,1.03
2023-04-12T04:24:40.061Z,1.00
2023-04-12T04:25:40.076Z,1.00
2023-04-12T04:26:40.096Z,1.02
2023-04-12T04:27:40.130Z,1.01
2023-04-12T04:28:40.166Z,1.00
2023-04-12T04:29:40.192Z,1.01
2023-04-12T04:30:40.222Z,1.01
2023-04-12T04:31:40.293Z,1.00
2023-04-12T04:32:40.299Z,0.99
2023-04-12T04:33:40.330Z,1.01
2023-04-12T04:34:40.364Z,0.99
2023-04-12T04:35:40.416Z,1.00
2023-04-12T04:36:40.417Z,1.00
2023-04-12T04:37:40.458Z,0.98
2023-04-12T04:38:40.513Z,1.00
2023-04-12T04:39:40.496Z,0.99
2023-04-12T04:40:40.534Z,0.96
2023-04-12T04:41:40.572Z,0.98
2023-04-12T04:42:40.590Z,0.98
2023-04-12T04:43:40.630Z,0.99
2023-04-12T04:44:40.661Z,0.97
2023-04-12T04:45:40.720Z,0.97
2023-04-12T04:46:40.709Z,0.98
2023-04-12T04:47:40.808Z,0.98
2023-04-12T04:48:40.768Z,0.97
2023-04-12T04:49:40.802Z,0.98
2023-04-12T04:50:40.821Z,0.99
2023-04-12T04:51:40.839Z,0.96
2023-04-12T04:52:40.889Z,0.96
2023-04-12T04:53:40.923Z,0.96
2023-04-12T04:54:40.934Z,0.95
2023-04-12T04:55:40.960Z,0.96
2023-04-12T04:56:41.003Z,0.96
2023-04-12T04:57:41.020Z,0.95
2023-04-12T04:58:41.045Z,0.94
2023-04-12T04:59:41.068Z,0.94
2023-04-12T05:00:41.097Z,0.96
2023-04-12T05:01:41.316Z,0.93
2023-04-12T05:02:41.351Z,0.96
2023-04-12T05:03:41.291Z,0.94
2023-04-12T05:04:41.196Z,0.93
2023-04-12T05:05:41.225Z,0.94
2023-04-12T05:06:41.247Z,0.94
2023-04-12T05:07:41.274Z,0.92
2023-04-12T05:08:41.301Z,0.94
2023-04-12T05:09:41.307Z,0.93
2023-04-12T05:10:41.382Z,0.94
2023-04-12T05:11:41.404Z,0.94
2023-04-12T05:12:41.404Z,0.92
2023-04-12T05:13:41.422Z,0.92
2023-04-12T05:14:47.097Z,0.93
2023-04-12T05:15:42.446Z,0.93
2023-04-12T05:16:41.499Z,0.93
2023-04-12T05:17:41.444Z,0.92
2023-04-12T05:18:41.431Z,0.93
2023-04-12T05:19:41.432Z,0.91
2023-04-12T05:20:41.419Z,0.89
2023-04-12T05:21:41.406Z,0.92
2023-04-12T05:22:41.399Z,0.99
2023-04-12T05:23:41.394Z,1.10
2023-04-12T05:24:41.391Z,1.13
2023-04-12T05:25:41.399Z,1.05
2023-04-12T05:26:41.430Z,1.12
2023-04-12T05:27:41.414Z,1.15
2023-04-12T05:28:41.412Z,1.14
2023-04-12T05:29:41.388Z,1.15
2023-04-12T05:30:41.423Z,1.14
2023-04-12T05:31:41.424Z,1.14
2023-04-12T05:32:42.210Z,1.11
2023-04-12T05:33:41.393Z,1.06
2023-04-12T05:34:41.442Z,1.08
2023-04-12T05:35:42.284Z,1.09
2023-04-12T05:36:41.383Z,1.12
2023-04-12T05:37:41.373Z,1.13
2023-04-12T05:38:41.368Z,1.15
2023-04-12T05:39:41.364Z,1.16
2023-04-12T05:40:41.366Z,1.17
2023-04-12T05:41:41.368Z,1.17
2023-04-12T05:42:41.375Z,1.19
2023-04-12T05:43:41.380Z,1.18
2023-04-12T05:44:41.400Z,1.22
2023-04-12T05:45:41.479Z,1.24
2023-04-12T05:46:41.581Z,1.24
2023-04-12T05:47:41.530Z,1.23
2023-04-12T05:48:41.485Z,1.22
2023-04-12T05:49:41.529Z,1.25
2023-04-12T05:50:41.583Z,1.22
2023-04-12T05:51:41.925Z,1.26
2023-04-12T05:52:41.577Z,1.24
2023-04-12T05:53:41.609Z,1.25
2023-04-12T05:54:41.664Z,1.24
2023-04-12T05:55:41.641Z,1.24
2023-04-12T05:56:41.661Z,1.25
2023-04-12T05:57:41.698Z,1.27
2023-04-12T05:58:41.704Z,1.29
2023-04-12T05:59:41.722Z,1.27
2023-04-12T06:00:41.754Z,1.28
2023-04-12T06:01:41.784Z,1.26
2023-04-12T06:02:41.921Z,1.31
2023-04-12T06:03:42.010Z,1.29
2023-04-12T06:04:50.254Z,1.29
2023-04-12T06:05:42.861Z,1.29
2023-04-12T06:06:41.822Z,1.29
2023-04-12T06:07:41.802Z,1.28
2023-04-12T06:08:41.802Z,1.29
2023-04-12T06:09:41.782Z,1.26
2023-04-12T06:10:41.783Z,1.30
2023-04-12T06:11:41.821Z,1.28
2023-04-12T06:12:41.753Z,1.27
2023-04-12T06:13:41.759Z,1.25
2023-04-12T06:14:41.750Z,1.24
2023-04-12T06:15:41.752Z,1.24
2023-04-12T06:16:42.314Z,1.25
2023-04-12T06:17:41.761Z,1.23
2023-04-12T06:18:41.732Z,1.24
2023-04-12T06:19:41.711Z,1.22
2023-04-12T06:20:42.284Z,1.22
2023-04-12T06:21:41.722Z,1.24
2023-04-12T06:22:41.690Z,1.22
2023-04-12T06:23:41.701Z,1.24
2023-04-12T06:24:41.707Z,1.21
2023-04-12T06:25:41.725Z,1.34
2023-04-12T06:26:41.745Z,1.34
2023-04-12T06:27:41.848Z,1.35
2023-04-12T06:28:41.754Z,1.55
2023-04-12T06:29:42.709Z,1.72
2023-04-12T06:30:41.743Z,2.03
2023-04-12T06:31:41.805Z,2.27
2023-04-12T06:32:41.735Z,2.30
2023-04-12T06:33:41.736Z,2.52
2023-04-12T06:34:41.740Z,2.69
2023-04-12T06:35:41.875Z,2.87
2023-04-12T06:36:41.808Z,3.21
2023-04-12T06:37:41.864Z,3.82
2023-04-12T06:38:42.851Z,3.63
2023-04-12T06:39:41.960Z,3.63
2023-04-12T06:40:42.015Z,3.68
2023-04-12T06:41:42.074Z,3.80
2023-04-12T06:42:42.109Z,4.15
2023-04-12T06:43:42.149Z,4.59
2023-04-12T06:44:42.196Z,4.92
2023-04-12T06:45:42.230Z,4.75
2023-04-12T06:46:42.293Z,4.61
2023-04-12T06:47:42.406Z,4.65
2023-04-12T06:48:42.367Z,4.87
2023-04-12T06:49:42.399Z,4.93
2023-04-12T06:50:42.413Z,4.99
2023-04-12T06:51:42.462Z,5.30
2023-04-12T06:52:42.489Z,5.48
2023-04-12T06:53:42.524Z,5.54
2023-04-12T06:54:42.641Z,5.67
2023-04-12T06:55:42.566Z,5.74
2023-04-12T06:56:42.610Z,5.65
2023-04-12T06:57:42.648Z,5.83
2023-04-12T06:58:42.655Z,6.13
2023-04-12T06:59:42.696Z,6.09
2023-04-12T07:00:42.732Z,6.27
2023-04-12T07:01:43.580Z,6.52
2023-04-12T07:02:42.946Z,6.49
2023-04-12T07:03:43.050Z,6.73
2023-04-12T07:04:42.840Z,6.90
2023-04-12T07:05:42.882Z,7.27
2023-04-12T07:06:42.902Z,7.21
2023-04-12T07:07:42.940Z,7.37
2023-04-12T07:08:42.945Z,7.61
2023-04-12T07:09:42.972Z,7.70
2023-04-12T07:10:42.991Z,7.87
2023-04-12T07:11:43.008Z,8.24
2023-04-12T07:12:43.021Z,8.31
2023-04-12T07:13:43.044Z,8.39
2023-04-12T07:14:44.630Z,8.49
2023-04-12T07:15:43.069Z,5.56
2023-04-12T07:16:43.128Z,2.76
2023-04-12T07:17:43.165Z,2.75
2023-04-12T07:18:43.170Z,1.68
2023-04-12T07:19:43.212Z,0.88
2023-04-12T07:20:43.225Z,0.57
2023-04-12T07:21:43.256Z,0.42
2023-04-12T07:22:43.304Z,0.44
2023-04-12T07:23:43.373Z,0.50
2023-04-12T07:24:43.453Z,0.53
2023-04-12T07:25:43.530Z,0.63
2023-04-12T07:26:43.583Z,0.73
2023-04-12T07:27:43.668Z,0.88
2023-04-12T07:28:43.691Z,0.96
2023-04-12T07:29:43.705Z,1.12
2023-04-12T07:30:43.729Z,1.25
2023-04-12T07:31:43.725Z,1.34
2023-04-12T07:32:43.767Z,1.45
2023-04-12T07:33:43.825Z,1.59
2023-04-12T07:34:43.878Z,1.61
2023-04-12T07:35:43.890Z,1.63
2023-04-12T07:36:43.904Z,1.76
2023-04-12T07:37:43.938Z,1.78
2023-04-12T07:38:44.007Z,1.91
2023-04-12T07:39:44.043Z,1.96
2023-04-12T07:40:44.067Z,2.09
2023-04-12T07:41:44.078Z,2.15
2023-04-12T07:42:44.109Z,2.26
2023-04-12T07:43:44.133Z,2.35
2023-04-12T07:44:44.161Z,2.48
2023-04-12T07:45:44.245Z,2.59
2023-04-12T07:46:44.195Z,2.67
2023-04-12T07:47:44.301Z,2.80
2023-04-12T07:48:44.224Z,2.78
2023-04-12T07:49:44.222Z,2.93
2023-04-12T07:50:44.215Z,3.08
2023-04-12T07:51:44.214Z,3.23
2023-04-12T07:52:44.245Z,3.35
2023-04-12T07:53:44.222Z,3.39
2023-04-12T07:54:44.221Z,3.54
2023-04-12T07:55:44.234Z,3.70
2023-04-12T07:56:44.212Z,3.66
2023-04-12T07:57:44.249Z,3.82
2023-04-12T07:58:44.203Z,4.20
2023-04-12T07:59:44.190Z,4.26
2023-04-12T08:00:44.184Z,4.31
2023-04-12T08:01:44.197Z,4.52
2023-04-12T08:02:44.294Z,4.59
2023-04-12T08:03:44.264Z,4.68
2023-04-12T08:04:44.161Z,4.88
2023-04-12T08:05:44.166Z,5.05
2023-04-12T08:06:44.101Z,5.23
2023-04-12T08:07:44.091Z,5.50
2023-04-12T08:08:44.075Z,5.52
2023-04-12T08:09:44.048Z,5.74
2023-04-12T08:10:44.034Z,6.17
2023-04-12T08:11:44.012Z,5.89
2023-04-12T08:12:44.005Z,6.23
2023-04-12T08:13:44.070Z,6.66
2023-04-12T08:14:44.407Z,7.32
2023-04-12T08:15:43.991Z,7.78
2023-04-12T08:16:43.915Z,7.41
2023-04-12T08:17:44.002Z,6.61
2023-04-12T08:18:43.889Z,7.09
2023-04-12T08:19:43.854Z,7.11
2023-04-12T08:20:43.859Z,7.09
2023-04-12T08:21:43.790Z,6.75
2023-04-12T08:22:43.767Z,6.56
2023-04-12T08:23:43.740Z,6.36
2023-04-12T08:24:43.804Z,6.36
2023-04-12T08:25:43.697Z,5.70
2023-04-12T08:26:43.645Z,5.47
2023-04-12T08:27:43.626Z,5.81
2023-04-12T08:28:43.592Z,5.95
2023-04-12T08:29:43.647Z,6.18
2023-04-12T08:30:43.542Z,6.39
2023-04-12T08:31:43.574Z,6.37
2023-04-12T08:32:43.595Z,6.43
2023-04-12T08:33:43.473Z,6.49
2023-04-12T08:34:44.869Z,6.62
2023-04-12T08:35:43.694Z,6.69
2023-04-12T08:36:43.591Z,6.71
2023-04-12T08:37:43.576Z,6.77
2023-04-12T08:38:46.252Z,6.95
2023-04-12T08:39:43.504Z,7.38
2023-04-12T08:40:43.479Z,8.04
2023-04-12T08:41:43.453Z,8.21
2023-04-12T08:42:43.399Z,8.31
2023-04-12T08:43:43.371Z,9.15
2023-04-12T08:44:43.335Z,9.12
2023-04-12T08:45:43.305Z,9.22
2023-04-12T08:46:43.294Z,9.23
2023-04-12T08:47:43.316Z,9.81
2023-04-12T08:48:43.192Z,9.94
2023-04-12T08:49:43.158Z,10.17
2023-04-12T08:50:43.121Z,10.46
2023-04-12T08:51:43.082Z,11.00
2023-04-12T08:52:43.063Z,10.92
2023-04-12T08:53:43.056Z,11.23
2023-04-12T08:54:42.984Z,11.88
2023-04-12T08:55:42.938Z,12.37
2023-04-12T08:56:42.906Z,12.25
2023-04-12T08:57:42.863Z,12.06
2023-04-12T08:58:42.828Z,13.04
2023-04-12T08:59:42.760Z,13.07
2023-04-12T09:00:42.720Z,13.39
2023-04-12T09:01:42.800Z,13.95
2023-04-12T09:02:42.888Z,14.14
2023-04-12T09:03:42.705Z,14.38
2023-04-12T09:04:42.753Z,14.38
2023-04-12T09:05:42.540Z,14.87
2023-04-12T09:06:42.469Z,15.38
2023-04-12T09:09:01.520Z,0.50
2023-04-12T09:10:01.455Z,0.50
2023-04-12T09:11:01.431Z,0.50
2023-04-12T09:12:01.412Z,0.50
2023-04-12T09:13:01.453Z,0.50
2023-04-12T09:14:08.406Z,0.50
2023-04-12T09:15:01.389Z,0.51
2023-04-12T09:16:01.384Z,0.51
2023-04-12T09:17:01.398Z,0.51
2023-04-12T09:18:01.380Z,0.49
2023-04-12T09:19:01.370Z,0.50
2023-04-12T09:20:01.348Z,0.50
2023-04-12T09:21:01.342Z,0.51
2023-04-12T09:22:01.337Z,0.50
2023-04-12T09:23:01.337Z,0.51
2023-04-12T09:24:01.332Z,0.51
2023-04-12T09:25:01.317Z,0.50
2023-04-12T09:26:01.310Z,0.51
2023-04-12T09:27:01.303Z,0.51
2023-04-12T09:28:01.291Z,0.51
2023-04-12T09:29:01.320Z,0.51
2023-04-12T09:30:01.319Z,0.50
2023-04-12T09:31:01.345Z,0.51
2023-04-12T09:32:01.320Z,0.50
2023-04-12T09:33:01.341Z,0.50
2023-04-12T09:34:01.300Z,0.50
2023-04-12T09:35:01.305Z,0.50
2023-04-12T09:36:01.369Z,0.50
2023-04-12T09:37:02.157Z,0.51
2023-04-12T09:38:01.278Z,0.50
2023-04-12T09:39:01.285Z,0.51
2023-04-12T09:40:01.286Z,0.51
2023-04-12T09:41:01.321Z,0.51
2023-04-12T09:42:01.339Z,0.51
2023-04-12T09:43:01.410Z,0.50
2023-04-12T09:44:01.464Z,0.51
2023-04-12T09:45:01.686Z,0.50
2023-04-12T09:46:01.614Z,0.51
2023-04-12T09:47:01.630Z,0.51
2023-04-12T09:48:01.773Z,0.52
2023-04-12T09:49:01.740Z,0.51
2023-04-12T09:50:01.752Z,0.51
2023-04-12T09:51:01.769Z,0.51
2023-04-12T09:52:01.898Z,0.52
2023-04-12T09:53:01.917Z,0.50
2023-04-12T09:54:01.956Z,0.51
2023-04-12T09:55:02.003Z,0.51
2023-04-12T09:56:02.011Z,0.51
2023-04-12T09:57:02.048Z,0.50
2023-04-12T09:58:02.107Z,0.51
2023-04-12T09:59:02.188Z,0.51
2023-04-12T10:00:02.181Z,0.51
2023-04-12T10:01:02.230Z,0.50
2023-04-12T10:02:02.333Z,0.52
2023-04-12T10:03:02.413Z,0.50
2023-04-12T10:04:02.996Z,0.50
2023-04-12T10:05:02.471Z,0.50
2023-04-12T10:06:02.407Z,0.50
2023-04-12T10:07:02.451Z,0.51
2023-04-12T10:08:02.495Z,0.51
2023-04-12T10:09:02.531Z,0.50
2023-04-12T10:10:02.613Z,0.51
2023-04-12T10:11:02.691Z,0.50
2023-04-12T10:12:02.732Z,0.51
2023-04-12T10:13:02.829Z,0.50
2023-04-12T10:14:02.865Z,0.51
2023-04-12T10:15:02.940Z,0.51
2023-04-12T10:16:03.063Z,0.51
2023-04-12T10:17:03.099Z,0.50
2023-04-12T10:18:03.231Z,0.52
2023-04-12T10:19:03.246Z,0.50
2023-04-12T10:20:03.352Z,0.51
2023-04-12T10:21:03.428Z,0.52
2023-04-12T10:22:03.636Z,0.52
2023-04-12T10:23:03.549Z,0.51
2023-04-12T10:24:03.574Z,0.51
2023-04-12T10:25:03.629Z,0.50
2023-04-12T10:26:03.679Z,0.51
2023-04-12T10:27:03.733Z,0.50
2023-04-12T10:28:03.820Z,0.50
2023-04-12T10:29:03.886Z,0.50
2023-04-12T10:30:03.933Z,0.50
2023-04-12T10:31:04.046Z,0.50
2023-04-12T10:32:04.078Z,0.50
2023-04-12T10:33:04.194Z,0.51
2023-04-12T10:34:04.189Z,0.50
2023-04-12T10:35:04.264Z,0.51
2023-04-12T10:36:04.525Z,0.52
2023-04-12T10:37:04.446Z,0.51
2023-04-12T10:38:04.592Z,0.50
2023-04-12T10:39:04.579Z,0.51
2023-04-12T10:40:04.676Z,0.50
2023-04-12T10:41:04.726Z,0.50
2023-04-12T10:42:04.799Z,0.51
2023-04-12T10:43:04.906Z,0.51
2023-04-12T10:44:04.952Z,0.50
2023-04-12T10:45:05.012Z,0.50
2023-04-12T10:46:05.158Z,0.50
2023-04-12T10:47:05.721Z,0.51
2023-04-12T10:48:05.224Z,0.50
2023-04-12T10:49:05.275Z,0.51
2023-04-12T10:50:06.098Z,0.50
2023-04-12T10:51:05.411Z,0.50
2023-04-12T10:52:05.520Z,0.51
2023-04-12T10:53:05.597Z,0.51
2023-04-12T10:54:05.622Z,0.50
2023-04-12T10:55:05.693Z,0.52
2023-04-12T10:56:05.757Z,0.51
2023-04-12T10:57:05.830Z,0.51
2023-04-12T10:58:05.900Z,0.51
2023-04-12T10:59:06.077Z,0.51
2023-04-12T11:00:06.043Z,0.51
2023-04-12T11:01:06.279Z,0.51
2023-04-12T11:02:06.300Z,0.51
2023-04-12T11:03:06.356Z,0.51
2023-04-12T11:04:06.553Z,0.51
2023-04-12T11:05:06.466Z,0.50
2023-04-12T11:06:23.825Z,0.51
2023-04-12T11:07:07.463Z,0.51
2023-04-12T11:08:06.468Z,0.51
2023-04-12T11:09:06.530Z,0.50
2023-04-12T11:10:06.471Z,0.50
2023-04-12T11:11:06.502Z,0.49
2023-04-12T11:12:08.186Z,0.50
2023-04-12T11:13:06.475Z,0.52
2023-04-12T11:14:06.494Z,0.51
2023-04-12T11:15:06.484Z,0.51
2023-04-12T11:16:06.572Z,0.50
2023-04-12T11:17:06.573Z,0.50
2023-04-12T11:18:06.523Z,0.50
2023-04-12T11:19:06.537Z,0.51
2023-04-12T11:20:06.490Z,0.50
2023-04-12T11:21:06.577Z,0.51
2023-04-12T11:22:06.507Z,0.51
2023-04-12T11:23:07.512Z,0.50
2023-04-12T11:24:06.530Z,0.52
2023-04-12T11:25:06.497Z,0.51
2023-04-12T11:26:06.495Z,0.51
2023-04-12T11:27:06.496Z,0.50
2023-04-12T11:28:17.308Z,0.51
2023-04-12T11:29:08.110Z,0.51
2023-04-12T11:30:06.495Z,0.51
2023-04-12T11:31:06.594Z,0.51
2023-04-12T11:32:06.576Z,0.50
2023-04-12T11:33:06.538Z,0.49
2023-04-12T11:34:06.497Z,0.50
2023-04-12T11:35:06.487Z,0.51
2023-04-12T11:36:06.488Z,0.51
2023-04-12T11:37:06.480Z,0.50
2023-04-12T11:38:06.468Z,0.51
2023-04-12T11:39:06.494Z,0.51
2023-04-12T11:40:06.537Z,0.51
2023-04-12T11:41:06.581Z,0.51
2023-04-12T11:42:06.642Z,0.51
2023-04-12T11:43:06.739Z,0.50
2023-04-12T11:44:06.693Z,0.51
2023-04-12T11:45:14.344Z,0.50
2023-04-12T11:46:07.825Z,0.50
2023-04-12T11:47:06.694Z,0.50
2023-04-12T11:48:06.782Z,0.50
2023-04-12T11:49:06.707Z,0.50
2023-04-12T11:50:06.702Z,0.49
2023-04-12T11:51:11.345Z,0.50
2023-04-12T11:52:07.713Z,0.51
2023-04-12T11:53:06.700Z,0.51
2023-04-12T11:54:06.690Z,0.50
2023-04-12T11:55:08.627Z,0.50
2023-04-12T11:56:06.691Z,0.48
2023-04-12T11:57:06.707Z,0.51
2023-04-12T11:58:06.747Z,0.50
2023-04-12T11:59:06.706Z,0.50
2023-04-12T12:00:07.011Z,0.51
2023-04-12T12:01:06.691Z,0.51
2023-04-12T12:02:21.223Z,0.51
2023-04-12T12:03:08.846Z,0.51
2023-04-12T12:04:07.006Z,0.51
2023-04-12T12:05:07.890Z,0.51
2023-04-12T12:06:06.990Z,0.51
2023-04-12T12:07:07.003Z,0.50
2023-04-12T12:08:06.846Z,0.50
2023-04-12T12:09:06.877Z,0.51
2023-04-12T12:10:06.909Z,0.51
2023-04-12T12:11:08.727Z,0.50
2023-04-12T12:12:07.020Z,0.52
2023-04-12T12:13:07.060Z,0.51
2023-04-12T12:14:07.106Z,0.50
2023-04-12T12:15:07.210Z,0.52
2023-04-12T12:16:07.259Z,0.51
2023-04-12T12:17:07.211Z,0.51
2023-04-12T12:18:07.293Z,0.50
2023-04-12T12:19:07.301Z,0.51
2023-04-12T12:20:07.364Z,0.51
2023-04-12T12:21:07.431Z,0.51
2023-04-12T12:22:07.476Z,0.50
2023-04-12T12:23:07.538Z,0.50
2023-04-12T12:24:07.593Z,0.50
2023-04-12T12:25:07.663Z,0.51
2023-04-12T12:26:18.535Z,0.51
2023-04-12T12:27:08.800Z,0.51
2023-04-12T12:28:07.822Z,0.51
2023-04-12T12:29:07.712Z,0.51
2023-04-12T12:30:07.731Z,0.50
2023-04-12T12:31:07.717Z,0.50
2023-04-12T12:32:07.705Z,0.50
2023-04-12T12:33:07.839Z,0.50
2023-04-12T12:34:09.388Z,0.50
2023-04-12T12:35:07.701Z,0.51
2023-04-12T12:36:07.779Z,0.50
2023-04-12T12:37:07.816Z,0.50
2023-04-12T12:38:07.870Z,0.52
2023-04-12T12:39:07.983Z,0.51
2023-04-12T12:40:08.016Z,0.51
2023-04-12T12:41:08.070Z,0.50
2023-04-12T12:42:08.109Z,0.50
2023-04-12T12:43:08.176Z,0.50
2023-04-12T12:44:08.535Z,0.51
2023-04-12T12:45:08.291Z,0.51
2023-04-12T12:46:08.431Z,0.50
2023-04-12T12:47:14.056Z,0.51
2023-04-12T12:48:09.508Z,0.51
2023-04-12T12:49:08.426Z,0.51
2023-04-12T12:50:08.490Z,0.51
2023-04-12T12:51:08.440Z,0.50
2023-04-12T12:52:08.438Z,0.50
2023-04-12T12:53:08.438Z,0.50
2023-04-12T12:54:08.436Z,0.51
2023-04-12T12:55:08.447Z,0.50
2023-04-12T12:56:08.471Z,0.51
2023-04-12T12:57:08.566Z,0.51
2023-04-12T12:58:08.716Z,0.50
2023-04-12T12:59:08.652Z,0.50
2023-04-12T13:00:08.732Z,0.50
2023-04-12T13:01:08.792Z,0.51
2023-04-12T13:02:08.957Z,0.50
2023-04-12T13:03:09.101Z,0.50
2023-04-12T13:04:09.103Z,0.51
2023-04-12T13:05:11.471Z,0.50
2023-04-12T13:06:09.073Z,0.51
2023-04-12T13:07:09.072Z,0.51
2023-04-12T13:08:09.059Z,0.51
2023-04-12T13:09:09.060Z,0.50
2023-04-12T13:10:09.098Z,0.51
2023-04-12T13:11:09.120Z,0.51
2023-04-12T13:12:09.056Z,0.50
2023-04-12T13:13:09.065Z,0.51
2023-04-12T13:14:09.047Z,0.50
2023-04-12T13:15:21.170Z,0.51
2023-04-12T13:16:10.131Z,0.51
2023-04-12T13:17:09.049Z,0.51
2023-04-12T13:18:09.081Z,0.51
2023-04-12T13:19:09.108Z,0.50